Terminal Aerodrome Forecast
Issued by NWS Binghamton, NY

Home | Current Version | Previous Version | Text Only | Print | Product List | Glossary On
Versions: 1 2 3 4 5 6 7 8 9 10 11 12 13 14 15 16 17 18 19 20
000
FTUS41 KBGM 271700
TAFAVP
TAF
KAVP 271739Z 2718/2818 31010KT P6SM BKN015 OVC040
      TEMPO 2718/2720 3SM -SN
     FM272000 30010KT P6SM SCT015 BKN050
     FM280300 VRB03KT P6SM OVC050
     FM281200 30008KT P6SM BKN100=

USA.gov is the U.S. government's official web portal to all federal, state and local government web resources and services.